createdAt,value
2022-09-27T00:01:41.193Z,10.30
2022-09-27T00:04:09.220Z,10.30
2022-09-27T00:06:40.769Z,10.30
2022-09-27T00:09:09.195Z,10.30
2022-09-27T00:11:39.396Z,10.30
2022-09-27T00:14:08.850Z,10.30
2022-09-27T00:16:40.093Z,10.30
2022-09-27T00:19:11.380Z,10.30
2022-09-27T00:21:39.502Z,10.30
2022-09-27T00:24:08.016Z,10.20
2022-09-27T00:26:36.110Z,10.20
2022-09-27T00:29:06.182Z,10.20
2022-09-27T00:31:34.569Z,10.10
2022-09-27T00:34:05.114Z,10.20
2022-09-27T00:36:34.330Z,10.20
2022-09-27T00:39:03.666Z,10.20
2022-09-27T00:41:34.784Z,10.10
2022-09-27T00:44:05.396Z,10.10
2022-09-27T00:46:37.710Z,10.20
2022-09-27T00:49:20.105Z,10.10
2022-09-27T00:51:51.728Z,10.10
2022-09-27T00:54:21.645Z,10.10
2022-09-27T00:56:50.669Z,10.10
2022-09-27T00:59:24.606Z,10.10
2022-09-27T01:01:52.836Z,10.10
2022-09-27T01:04:25.708Z,10.20
2022-09-27T01:06:54.774Z,10.20
2022-09-27T01:09:24.150Z,10.20
2022-09-27T01:12:02.183Z,10.20
2022-09-27T01:14:55.039Z,10.10
2022-09-27T01:17:33.987Z,10.10
2022-09-27T01:20:24.631Z,10.10
2022-09-27T01:23:05.546Z,10.10
2022-09-27T01:25:55.478Z,10.10
2022-09-27T01:28:35.141Z,10.10
2022-09-27T01:31:10.559Z,10.10
2022-09-27T01:33:47.519Z,10.10
2022-09-27T01:36:31.530Z,10.10
2022-09-27T01:39:12.019Z,10.00
2022-09-27T01:41:46.657Z,10.00
2022-09-27T01:44:21.755Z,10.10
2022-09-27T01:46:55.946Z,10.10
2022-09-27T01:49:30.379Z,10.10
2022-09-27T01:52:02.626Z,10.10
2022-09-27T01:54:37.214Z,10.10
2022-09-27T01:57:08.253Z,10.00
2022-09-27T01:59:41.778Z,10.00
2022-09-27T02:02:12.417Z,10.10
2022-09-27T02:04:43.215Z,10.00
2022-09-27T02:07:16.146Z,10.00
2022-09-27T02:09:49.849Z,10.00
2022-09-27T02:12:22.094Z,10.00
2022-09-27T02:14:54.851Z,10.00
2022-09-27T02:17:32.459Z,9.90
2022-09-27T02:20:08.866Z,9.80
2022-09-27T02:22:40.383Z,9.80
2022-09-27T02:25:15.317Z,9.80
2022-09-27T02:27:53.606Z,9.80
2022-09-27T02:30:21.809Z,9.90
2022-09-27T02:32:51.281Z,9.80
2022-09-27T02:35:24.148Z,9.70
2022-09-27T02:37:53.174Z,9.70
2022-09-27T02:40:21.356Z,9.70
2022-09-27T02:42:49.658Z,9.60
2022-09-27T02:45:19.681Z,9.70
2022-09-27T02:48:04.691Z,9.70
2022-09-27T02:50:57.486Z,9.70
2022-09-27T02:53:39.801Z,9.70
2022-09-27T02:56:15.445Z,9.70
2022-09-27T02:58:56.355Z,9.70
2022-09-27T03:01:32.609Z,9.70
2022-09-27T03:04:10.114Z,9.60
2022-09-27T03:06:41.296Z,9.50
2022-09-27T03:09:18.663Z,9.50
2022-09-27T03:11:46.690Z,9.50
2022-09-27T03:14:14.876Z,9.40
2022-09-27T03:16:42.926Z,9.30
2022-09-27T03:19:12.414Z,9.20
2022-09-27T03:21:40.407Z,9.20
2022-09-27T03:24:08.513Z,9.30
2022-09-27T03:26:36.588Z,9.30
2022-09-27T03:29:04.673Z,9.20
2022-09-27T03:31:32.723Z,9.20
2022-09-27T03:34:00.926Z,9.10
2022-09-27T03:36:30.267Z,9.00
2022-09-27T03:38:58.826Z,9.00
2022-09-27T03:41:26.767Z,9.00
2022-09-27T03:43:56.658Z,8.90
2022-09-27T03:46:24.897Z,8.90
2022-09-27T03:48:53.098Z,8.90
2022-09-27T03:51:21.171Z,8.90
2022-09-27T03:53:51.141Z,8.90
2022-09-27T03:56:19.391Z,8.80
2022-09-27T03:58:47.596Z,8.90
2022-09-27T04:01:15.727Z,8.90
2022-09-27T04:03:43.926Z,8.90
2022-09-27T04:06:12.019Z,8.80
2022-09-27T04:08:39.981Z,8.90
2022-09-27T04:11:09.424Z,8.90
2022-09-27T04:13:37.472Z,8.90
2022-09-27T04:16:05.700Z,8.90
2022-09-27T04:18:33.764Z,8.80
2022-09-27T04:21:02.106Z,8.90
2022-09-27T04:23:30.886Z,8.90
2022-09-27T04:25:58.929Z,8.80
2022-09-27T04:28:30.147Z,8.80
2022-09-27T04:30:58.301Z,8.80
2022-09-27T04:33:26.464Z,8.80
2022-09-27T04:36:11.979Z,8.90
2022-09-27T04:38:40.244Z,8.90
2022-09-27T04:41:08.795Z,8.90
2022-09-27T04:43:38.219Z,8.90
2022-09-27T04:46:06.596Z,8.80
2022-09-27T04:48:34.673Z,8.80
2022-09-27T04:51:04.218Z,8.80
2022-09-27T04:53:32.504Z,8.80
2022-09-27T04:56:01.473Z,8.80
2022-09-27T04:58:29.923Z,8.70
2022-09-27T05:00:59.536Z,8.70
2022-09-27T05:03:28.370Z,8.70
2022-09-27T05:05:56.671Z,8.70
2022-09-27T05:08:25.251Z,8.80
2022-09-27T05:10:53.604Z,8.70
2022-09-27T05:13:21.709Z,8.70
2022-09-27T05:15:49.914Z,8.80
2022-09-27T05:18:19.355Z,8.80
2022-09-27T05:20:47.838Z,8.80
2022-09-27T05:23:15.941Z,8.70
2022-09-27T05:25:43.928Z,8.80
2022-09-27T05:28:12.038Z,8.90
2022-09-27T05:30:40.099Z,8.80
2022-09-27T05:33:08.140Z,8.80
2022-09-27T05:35:39.291Z,8.80
2022-09-27T05:38:28.868Z,8.80
2022-09-27T05:40:57.067Z,8.90
2022-09-27T05:43:25.398Z,8.90
2022-09-27T05:45:54.019Z,8.90
2022-09-27T05:48:22.434Z,9.00
2022-09-27T05:50:51.945Z,9.00
2022-09-27T05:53:20.063Z,9.10
2022-09-27T05:55:48.683Z,9.10
2022-09-27T05:58:16.974Z,9.10
2022-09-27T06:00:45.147Z,9.10
2022-09-27T06:03:14.417Z,9.20
2022-09-27T06:05:50.506Z,9.10
2022-09-27T06:08:21.364Z,9.10
2022-09-27T06:10:49.781Z,9.10
2022-09-27T06:13:18.576Z,9.10
2022-09-27T06:15:47.568Z,9.20
2022-09-27T06:18:18.653Z,9.10
2022-09-27T06:20:46.830Z,9.10
2022-09-27T06:23:16.547Z,9.20
2022-09-27T06:25:47.008Z,9.20
2022-09-27T06:28:15.733Z,9.30
2022-09-27T06:30:46.029Z,9.40
2022-09-27T06:33:16.339Z,9.50
2022-09-27T06:35:46.388Z,9.60
2022-09-27T06:38:16.599Z,9.60
2022-09-27T06:40:46.925Z,9.60
2022-09-27T06:43:17.423Z,9.60
2022-09-27T06:45:45.666Z,9.60
2022-09-27T06:48:16.083Z,9.70
2022-09-27T06:50:45.847Z,9.70
2022-09-27T06:53:16.155Z,9.70
2022-09-27T06:58:58.434Z,9.70
2022-09-27T07:01:29.605Z,9.70
2022-09-27T07:03:58.868Z,9.50
2022-09-27T07:06:27.254Z,9.60
2022-09-27T07:08:55.750Z,9.70
2022-09-27T07:11:26.090Z,9.60
2022-09-27T07:13:56.448Z,9.60
2022-09-27T07:16:24.805Z,9.60
2022-09-27T07:18:53.035Z,9.70
2022-09-27T07:21:21.508Z,9.70
2022-09-27T07:23:49.636Z,9.70
2022-09-27T07:30:13.963Z,9.80
2022-09-27T07:32:42.297Z,9.80
2022-09-27T07:35:11.776Z,9.80
2022-09-27T07:37:40.261Z,9.90
2022-09-27T07:40:10.754Z,10.00
2022-09-27T07:42:39.534Z,10.00
2022-09-27T07:45:09.346Z,10.10
2022-09-27T07:47:39.919Z,10.20
2022-09-27T07:50:10.377Z,10.20
2022-09-27T07:52:42.409Z,10.20
2022-09-27T07:55:12.528Z,10.20
2022-09-27T07:57:41.578Z,10.30
2022-09-27T08:00:12.440Z,10.40
2022-09-27T08:02:42.105Z,10.50
2022-09-27T08:05:11.640Z,10.60
2022-09-27T08:07:40.405Z,10.50
2022-09-27T08:10:09.847Z,10.50
2022-09-27T08:12:38.519Z,10.40
2022-09-27T08:15:07.942Z,10.50
2022-09-27T08:17:36.190Z,10.60
2022-09-27T08:20:06.683Z,10.60
2022-09-27T08:22:35.217Z,10.60
2022-09-27T08:25:03.769Z,10.50
2022-09-27T08:27:32.360Z,10.60
2022-09-27T08:30:00.541Z,10.60
2022-09-27T08:32:30.671Z,10.70
2022-09-27T08:34:59.664Z,10.80
2022-09-27T08:37:29.018Z,10.80
2022-09-27T08:39:57.063Z,10.80
2022-09-27T08:42:32.826Z,10.80
2022-09-27T08:45:05.204Z,11.00
2022-09-27T08:47:38.798Z,11.20
2022-09-27T08:50:20.141Z,11.30
2022-09-27T08:52:54.612Z,11.40
2022-09-27T08:55:31.553Z,11.60
2022-09-27T08:58:00.923Z,11.90
2022-09-27T09:00:30.551Z,12.20
2022-09-27T09:03:02.297Z,12.50
2022-09-27T09:05:33.497Z,12.80
2022-09-27T09:08:19.619Z,13.10
2022-09-27T09:11:10.934Z,12.80
2022-09-27T09:13:58.349Z,12.70
2022-09-27T09:16:43.436Z,12.70
2022-09-27T09:19:34.622Z,12.70
2022-09-27T09:22:11.381Z,12.60
2022-09-27T09:24:51.243Z,12.70
2022-09-27T09:27:26.604Z,12.40
2022-09-27T09:30:06.950Z,12.70
2022-09-27T09:32:47.005Z,12.90
2022-09-27T09:35:19.588Z,12.80
2022-09-27T09:37:52.167Z,12.70
2022-09-27T09:40:26.233Z,12.60
2022-09-27T09:42:58.394Z,12.80
2022-09-27T09:45:30.322Z,13.10
2022-09-27T09:48:04.370Z,13.30
2022-09-27T09:50:38.956Z,13.20
2022-09-27T09:53:15.347Z,12.90
2022-09-27T09:55:49.563Z,12.80
2022-09-27T09:58:24.847Z,13.00
2022-09-27T10:00:57.054Z,13.30
2022-09-27T10:03:25.525Z,13.40
2022-09-27T10:05:54.389Z,13.00
2022-09-27T10:08:24.627Z,12.90
2022-09-27T10:10:54.074Z,12.80
2022-09-27T10:13:23.748Z,12.60
2022-09-27T10:16:00.202Z,12.40
2022-09-27T10:18:29.662Z,12.30
2022-09-27T10:21:01.352Z,12.20
2022-09-27T10:23:30.056Z,12.30
2022-09-27T10:26:02.130Z,12.40
2022-09-27T10:28:37.319Z,12.70
2022-09-27T10:31:07.834Z,12.90
2022-09-27T10:33:38.988Z,13.10
2022-09-27T10:36:25.032Z,13.10
2022-09-27T10:38:55.694Z,13.20
2022-09-27T10:41:32.282Z,13.30
2022-09-27T10:44:21.416Z,13.20
2022-09-27T10:46:51.819Z,13.40
2022-09-27T10:49:23.937Z,13.40
2022-09-27T10:51:54.531Z,13.70
2022-09-27T10:54:25.097Z,14.00
2022-09-27T10:57:00.259Z,14.40
2022-09-27T10:59:30.670Z,14.70
2022-09-27T11:01:59.781Z,14.80
2022-09-27T11:04:31.672Z,14.70
2022-09-27T11:07:14.681Z,14.50
2022-09-27T11:09:48.927Z,14.30
2022-09-27T11:12:22.822Z,14.50
2022-09-27T11:14:56.985Z,14.10
2022-09-27T11:17:33.391Z,14.10
2022-09-27T11:20:16.563Z,13.90
2022-09-27T11:23:10.163Z,14.10
2022-09-27T11:25:47.344Z,13.90
2022-09-27T11:28:32.063Z,14.10
2022-09-27T11:31:08.928Z,14.10
2022-09-27T11:33:53.223Z,14.10
2022-09-27T11:36:35.688Z,14.10
2022-09-27T11:39:08.802Z,13.90
2022-09-27T11:41:50.839Z,14.30
2022-09-27T11:44:41.540Z,14.50
2022-09-27T11:47:18.461Z,14.40
2022-09-27T11:50:21.997Z,14.30
2022-09-27T11:53:04.793Z,14.20
2022-09-27T11:55:46.207Z,14.10
2022-09-27T11:58:22.748Z,14.00
2022-09-27T12:01:03.476Z,13.90
2022-09-27T12:04:06.383Z,14.10
2022-09-27T12:06:44.402Z,14.00
2022-09-27T12:09:16.105Z,13.80
2022-09-27T12:11:49.020Z,13.90
2022-09-27T12:14:26.709Z,14.10
2022-09-27T12:16:58.454Z,13.90
2022-09-27T12:19:30.906Z,13.80
2022-09-27T12:22:02.394Z,13.50
2022-09-27T12:24:31.017Z,13.50
2022-09-27T12:27:02.632Z,13.50
2022-09-27T12:29:36.154Z,13.70
2022-09-27T12:32:11.945Z,13.60
2022-09-27T12:34:45.391Z,13.50
2022-09-27T12:37:19.713Z,13.30
2022-09-27T12:39:54.255Z,13.40
2022-09-27T12:42:26.895Z,13.50
2022-09-27T12:44:54.921Z,13.50
2022-09-27T12:47:45.133Z,13.40
2022-09-27T12:50:23.804Z,13.40
2022-09-27T12:52:56.017Z,13.70
2022-09-27T12:55:55.673Z,13.70
2022-09-27T12:59:00.047Z,13.60
2022-09-27T13:01:49.608Z,13.60
2022-09-27T13:04:43.158Z,13.50
2022-09-27T13:07:35.055Z,13.40
2022-09-27T13:10:30.508Z,13.30
2022-09-27T13:13:01.532Z,13.40
2022-09-27T13:15:33.272Z,13.50
2022-09-27T13:18:03.973Z,13.70
2022-09-27T13:20:55.814Z,13.50
2022-09-27T13:23:51.323Z,13.40
2022-09-27T13:26:42.991Z,13.30
2022-09-27T13:29:24.647Z,13.30
2022-09-27T13:32:23.950Z,13.30
2022-09-27T13:34:54.755Z,13.40
2022-09-27T13:37:39.957Z,13.00
2022-09-27T13:40:28.565Z,13.40
2022-09-27T13:43:26.951Z,13.50
2022-09-27T13:45:57.265Z,13.60
2022-09-27T13:48:31.796Z,13.60
2022-09-27T13:51:04.419Z,13.30
2022-09-27T13:53:37.362Z,13.70
2022-09-27T13:56:06.449Z,13.90
2022-09-27T13:58:51.614Z,13.90
2022-09-27T14:01:28.449Z,13.60
2022-09-27T14:04:01.903Z,13.60
2022-09-27T14:06:35.243Z,13.20
2022-09-27T14:09:07.919Z,13.60
2022-09-27T14:11:39.266Z,13.60
2022-09-27T14:14:09.044Z,13.50
2022-09-27T14:16:41.650Z,13.70
2022-09-27T14:19:17.686Z,13.60
2022-09-27T14:21:47.754Z,13.50
2022-09-27T14:24:29.907Z,13.40
2022-09-27T14:27:14.057Z,13.50
2022-09-27T14:29:46.700Z,13.40
2022-09-27T14:32:17.584Z,13.50
2022-09-27T14:34:46.121Z,13.20
2022-09-27T14:37:26.389Z,13.10
2022-09-27T14:39:58.318Z,12.90
2022-09-27T14:42:28.616Z,12.80
2022-09-27T14:45:02.484Z,12.60
2022-09-27T14:47:30.347Z,12.30
2022-09-27T14:50:00.793Z,11.40
2022-09-27T14:52:35.583Z,11.10
2022-09-27T14:55:09.554Z,10.90
2022-09-27T14:57:37.893Z,10.90
2022-09-27T15:00:21.635Z,10.80
2022-09-27T15:02:54.238Z,10.70
2022-09-27T15:05:24.601Z,10.60
2022-09-27T15:07:55.685Z,10.20
2022-09-27T15:10:28.342Z,10.10
2022-09-27T15:13:01.294Z,10.30
2022-09-27T15:15:32.047Z,10.50
2022-09-27T15:18:00.662Z,10.50
2022-09-27T15:20:34.819Z,10.70
2022-09-27T15:23:05.074Z,11.00
2022-09-27T15:25:37.499Z,11.10
2022-09-27T15:28:09.326Z,11.10
2022-09-27T15:30:39.433Z,11.20
2022-09-27T15:33:16.263Z,11.20
2022-09-27T15:35:50.382Z,11.20
2022-09-27T15:38:28.881Z,11.10
2022-09-27T15:41:10.530Z,11.10
2022-09-27T15:43:47.453Z,11.00
2022-09-27T15:46:38.139Z,10.80
2022-09-27T15:49:39.186Z,10.70
2022-09-27T15:52:09.499Z,10.70
2022-09-27T15:54:37.617Z,10.80
2022-09-27T15:57:07.809Z,10.70
2022-09-27T15:59:37.356Z,10.60
2022-09-27T16:02:19.447Z,10.60
2022-09-27T16:05:12.985Z,10.70
2022-09-27T16:07:41.245Z,10.80
2022-09-27T16:10:15.908Z,10.80
2022-09-27T16:12:45.752Z,10.80
2022-09-27T16:15:14.736Z,10.80
2022-09-27T16:17:43.792Z,10.60
2022-09-27T16:20:18.746Z,10.40
2022-09-27T16:22:47.220Z,10.40
2022-09-27T16:25:15.570Z,10.40
2022-09-27T16:27:45.712Z,10.40
2022-09-27T16:30:17.270Z,10.30
2022-09-27T16:32:47.321Z,10.30
2022-09-27T16:35:25.310Z,10.20
2022-09-27T16:37:53.993Z,10.30
2022-09-27T16:40:22.614Z,10.20
2022-09-27T16:42:52.945Z,10.30
2022-09-27T16:45:33.403Z,10.40
2022-09-27T16:48:01.931Z,10.40
2022-09-27T16:50:47.879Z,10.30
2022-09-27T16:53:18.497Z,10.20
2022-09-27T16:55:46.490Z,10.30
2022-09-27T16:58:15.802Z,10.20
2022-09-27T17:00:44.142Z,10.20
2022-09-27T17:03:12.263Z,10.00
2022-09-27T17:05:40.151Z,10.00
2022-09-27T17:08:08.042Z,9.90
2022-09-27T17:10:38.576Z,9.80
2022-09-27T17:13:07.162Z,9.80
2022-09-27T17:15:38.104Z,9.70
2022-09-27T17:18:06.379Z,9.70
2022-09-27T17:20:34.295Z,9.50
2022-09-27T17:23:03.202Z,9.60
2022-09-27T17:25:31.390Z,9.50
2022-09-27T17:27:59.522Z,9.40
2022-09-27T17:30:27.575Z,9.40
2022-09-27T17:32:57.925Z,9.50
2022-09-27T17:35:25.887Z,9.50
2022-09-27T17:37:53.810Z,9.50
2022-09-27T17:40:21.860Z,9.50
2022-09-27T17:42:51.263Z,9.40
2022-09-27T17:45:19.251Z,9.40
2022-09-27T17:48:04.697Z,9.40
2022-09-27T17:50:35.610Z,9.40
2022-09-27T17:53:03.561Z,9.30
2022-09-27T17:55:32.515Z,9.40
2022-09-27T17:58:01.647Z,9.60
2022-09-27T18:00:31.361Z,9.40
2022-09-27T18:03:00.297Z,9.50
2022-09-27T18:05:29.196Z,9.40
2022-09-27T18:08:00.251Z,9.50
2022-09-27T18:10:28.445Z,9.50
2022-09-27T18:12:56.339Z,9.40
2022-09-27T18:15:24.464Z,9.30
2022-09-27T18:17:57.857Z,9.40
2022-09-27T18:20:26.942Z,9.40
2022-09-27T18:22:55.028Z,9.20
2022-09-27T18:25:25.150Z,9.20
2022-09-27T18:27:55.698Z,9.10
2022-09-27T18:30:23.701Z,9.20
2022-09-27T18:32:51.674Z,9.10
2022-09-27T18:35:20.548Z,9.00
2022-09-27T18:37:48.476Z,9.10
2022-09-27T18:40:27.892Z,9.20
2022-09-27T18:43:06.272Z,9.10
2022-09-27T18:45:37.299Z,9.10
2022-09-27T18:48:05.959Z,9.00
2022-09-27T18:50:37.671Z,9.00
2022-09-27T18:53:05.645Z,8.90
2022-09-27T18:55:37.114Z,8.90
2022-09-27T18:58:06.530Z,8.90
2022-09-27T19:00:34.503Z,8.80
2022-09-27T19:03:02.709Z,8.80
2022-09-27T19:05:30.628Z,8.90
2022-09-27T19:07:58.581Z,8.90
2022-09-27T19:10:26.590Z,8.90
2022-09-27T19:12:57.131Z,8.90
2022-09-27T19:15:26.807Z,9.10
2022-09-27T19:17:55.341Z,9.20
2022-09-27T19:20:23.277Z,9.10
2022-09-27T19:22:51.342Z,9.00
2022-09-27T19:25:19.347Z,9.00
2022-09-27T19:27:47.265Z,9.00
2022-09-27T19:30:15.411Z,8.90
2022-09-27T19:32:46.631Z,8.80
2022-09-27T19:35:14.739Z,8.80
2022-09-27T19:37:42.870Z,8.80
2022-09-27T19:40:10.872Z,8.70
2022-09-27T19:42:38.825Z,8.70
2022-09-27T19:45:11.477Z,8.60
2022-09-27T19:47:39.696Z,8.50
2022-09-27T19:50:10.273Z,8.50
2022-09-27T19:52:38.720Z,8.60
2022-09-27T19:55:08.108Z,8.60
2022-09-27T19:57:36.137Z,8.60
2022-09-27T20:00:04.540Z,8.60
2022-09-27T20:02:32.609Z,8.50
2022-09-27T20:05:00.679Z,8.60
2022-09-27T20:07:30.691Z,8.50
2022-09-27T20:09:58.677Z,8.50
2022-09-27T20:12:26.897Z,8.40
2022-09-27T20:14:54.765Z,8.30
2022-09-27T20:17:22.671Z,8.30
2022-09-27T20:19:50.583Z,8.20
2022-09-27T20:22:18.468Z,8.20
2022-09-27T20:24:47.709Z,8.20
2022-09-27T20:27:15.752Z,8.20
2022-09-27T20:29:44.297Z,8.10
2022-09-27T20:32:28.537Z,8.10
2022-09-27T20:34:56.675Z,8.10
2022-09-27T20:37:24.591Z,8.10
2022-09-27T20:39:53.823Z,8.00
2022-09-27T20:42:22.127Z,8.10
2022-09-27T20:44:54.111Z,8.10
2022-09-27T20:47:23.904Z,8.10
2022-09-27T20:49:52.105Z,8.00
2022-09-27T20:52:20.656Z,7.90
2022-09-27T20:54:48.635Z,7.80
2022-09-27T20:57:21.307Z,7.90
2022-09-27T20:59:56.171Z,7.80
2022-09-27T21:02:24.377Z,7.90
2022-09-27T21:04:52.404Z,8.00
2022-09-27T21:07:20.755Z,8.10
2022-09-27T21:09:50.251Z,8.00
2022-09-27T21:12:19.826Z,8.00
2022-09-27T21:14:48.064Z,7.90
2022-09-27T21:17:17.542Z,7.90
2022-09-27T21:19:45.664Z,7.70
2022-09-27T21:22:15.098Z,7.60
2022-09-27T21:24:43.445Z,7.60
2022-09-27T21:27:11.324Z,7.50
2022-09-27T21:29:40.609Z,7.50
2022-09-27T21:32:08.824Z,7.50
2022-09-27T21:34:36.702Z,7.50
2022-09-27T21:37:04.641Z,7.50
2022-09-27T21:39:32.525Z,7.30
2022-09-27T21:42:00.394Z,7.30
2022-09-27T21:44:28.300Z,7.20
2022-09-27T21:46:57.627Z,7.20
2022-09-27T21:49:25.646Z,7.20
2022-09-27T21:51:53.530Z,7.10
2022-09-27T21:54:21.438Z,7.10
2022-09-27T21:56:49.270Z,7.10
2022-09-27T21:59:18.566Z,7.10
2022-09-27T22:01:47.177Z,7.20
2022-09-27T22:04:16.751Z,7.10
2022-09-27T22:06:45.170Z,7.30
2022-09-27T22:09:16.498Z,7.50
2022-09-27T22:11:47.219Z,7.60
2022-09-27T22:14:16.150Z,7.80
2022-09-27T22:16:44.646Z,7.90
2022-09-27T22:19:13.670Z,7.90
2022-09-27T22:21:43.291Z,8.00
2022-09-27T22:24:14.709Z,8.00
2022-09-27T22:26:46.446Z,8.00
2022-09-27T22:29:14.479Z,8.10
2022-09-27T22:31:42.518Z,8.20
2022-09-27T22:34:18.320Z,8.20
2022-09-27T22:36:47.910Z,8.30
2022-09-27T22:39:15.834Z,8.20
2022-09-27T22:41:43.919Z,8.20
2022-09-27T22:44:11.894Z,8.30
2022-09-27T22:46:40.136Z,8.30
2022-09-27T22:49:08.278Z,8.40
2022-09-27T22:51:36.225Z,8.30
2022-09-27T22:54:05.897Z,8.30
2022-09-27T22:56:33.873Z,8.30
2022-09-27T22:59:03.280Z,8.40
2022-09-27T23:01:31.635Z,8.50
2022-09-27T23:03:59.764Z,8.50
2022-09-27T23:06:27.678Z,8.60
2022-09-27T23:08:55.559Z,8.40
2022-09-27T23:11:24.935Z,8.50
2022-09-27T23:13:52.898Z,8.40
2022-09-27T23:41:55.944Z,8.60
2022-09-27T23:44:24.374Z,8.60
2022-09-27T23:46:54.419Z,8.60
2022-09-27T23:49:22.377Z,8.70
2022-09-27T23:51:50.793Z,8.60
2022-09-27T23:54:18.642Z,8.60
2022-09-27T23:56:46.500Z,8.60
2022-09-27T23:59:17.044Z,8.70
